Time;durP1;ratioP1;P1;durP2;ratioP2;P2;SDS_P1;SDS_P2;PMS_P1;PMS_P2;Temp;Humidity;BMP_temperature;BMP_pressure;BME280_temperature;BME280_humidity;BME280_pressure;Samples;Min_cycle;Max_cycle;Signal;HPM_P1;HPM_P2
2023/09/25 00:01:21;;;;;;;12.23;3.30;;;;;;;13.72;90.59;99864.72;5009409;28;20062;-46
2023/09/25 00:03:49;;;;;;;16.10;3.75;;;;;;;13.72;90.59;99873.06;4992291;28;20060;-44
2023/09/25 00:06:16;;;;;;;17.63;3.35;;;;;;;13.71;90.52;99877.06;5009281;28;20392;-47
2023/09/25 00:08:43;;;;;;;15.80;4.03;;;;;;;13.69;90.48;99882.19;5008705;28;20041;-44
2023/09/25 00:11:11;;;;;;;16.98;3.08;;;;;;;13.68;90.76;99888.94;4988275;28;20084;-45
2023/09/25 00:13:39;;;;;;;20.02;3.33;;;;;;;13.68;90.75;99888.94;5008936;28;20045;-45
2023/09/25 00:16:11;;;;;;;19.20;2.88;;;;;;;13.67;90.69;99897.66;5009237;28;20045;-44
2023/09/25 00:18:39;;;;;;;17.77;3.75;;;;;;;13.65;90.70;99898.06;5009630;28;20096;-44
2023/09/25 00:21:06;;;;;;;18.58;3.60;;;;;;;13.65;90.81;99903.63;5008313;28;20451;-44
2023/09/25 00:23:33;;;;;;;23.35;5.38;;;;;;;13.65;90.83;99900.84;5006590;28;20046;-44
2023/09/25 00:26:04;;;;;;;21.40;4.97;;;;;;;13.64;90.98;99899.22;5010080;28;20037;-44
2023/09/25 00:28:31;;;;;;;14.98;2.92;;;;;;;13.66;90.94;99910.75;5009711;28;20054;-44
2023/09/25 00:30:58;;;;;;;15.93;3.20;;;;;;;13.66;90.90;99907.97;5009387;28;21249;-44
2023/09/25 00:33:26;;;;;;;15.98;4.88;;;;;;;13.67;90.86;99915.16;5009322;28;20447;-43
2023/09/25 00:35:56;;;;;;;22.65;4.25;;;;;;;13.66;90.84;99913.53;4991804;28;20084;-45
2023/09/25 00:38:23;;;;;;;17.65;3.88;;;;;;;13.65;90.79;99922.28;5010109;28;20050;-44
2023/09/25 00:40:49;;;;;;;18.08;4.57;;;;;;;13.66;90.96;99907.97;5009578;28;20042;-47
2023/09/25 00:43:17;;;;;;;15.80;3.33;;;;;;;13.66;90.84;99919.09;5009205;28;20049;-44
2023/09/25 00:45:46;;;;;;;15.02;3.65;;;;;;;13.65;90.83;99914.75;5009765;28;20116;-45
2023/09/25 00:48:25;;;;;;;22.65;3.65;;;;;;;13.65;90.80;99916.72;5010137;28;20038;-44
2023/09/25 00:50:55;;;;;;;20.10;3.92;;;;;;;13.64;90.64;99909.56;5009315;28;20108;-46
2023/09/25 00:53:26;;;;;;;22.42;3.78;;;;;;;13.63;90.68;99913.53;5008004;28;20057;-44
2023/09/25 00:55:55;;;;;;;23.20;5.18;;;;;;;13.62;90.60;99918.31;5009709;28;20037;-45
2023/09/25 00:58:24;;;;;;;17.40;3.97;;;;;;;13.61;90.79;99916.69;5009305;28;20411;-48
2023/09/25 01:00:52;;;;;;;13.30;3.53;;;;;;;13.59;90.65;99916.28;5007656;28;20487;-44
2023/09/25 01:03:19;;;;;;;21.52;4.45;;;;;;;13.58;90.59;99922.25;4990660;28;20053;-44
2023/09/25 01:05:47;;;;;;;20.52;3.78;;;;;;;13.55;90.58;99921.03;5008280;28;20428;-44
2023/09/25 01:08:14;;;;;;;20.42;5.15;;;;;;;13.55;90.72;99934.94;5009058;28;20041;-44
2023/09/25 01:10:41;;;;;;;24.63;5.03;;;;;;;13.55;90.65;99939.69;5009498;28;20061;-44
2023/09/25 01:13:10;;;;;;;18.48;4.95;;;;;;;13.55;90.64;99945.25;4991707;28;20041;-48
2023/09/25 01:15:39;;;;;;;17.95;4.45;;;;;;;13.55;90.73;99948.84;5009499;28;20034;-46
2023/09/25 01:18:09;;;;;;;33.25;6.00;;;;;;;13.55;90.49;99965.53;5009353;28;20048;-44
2023/09/25 01:20:37;;;;;;;23.30;3.83;;;;;;;13.53;90.69;99953.97;5009653;28;20058;-44
2023/09/25 01:23:04;;;;;;;25.48;5.13;;;;;;;13.54;90.60;99972.25;4989031;28;20037;-45
2023/09/25 01:25:31;;;;;;;15.93;2.78;;;;;;;13.54;90.42;99972.25;4985178;28;20062;-45
2023/09/25 01:27:58;;;;;;;18.38;5.53;;;;;;;13.54;90.43;99974.25;5008987;28;20053;-44
2023/09/25 01:30:26;;;;;;;21.83;3.38;;;;;;;13.54;90.44;99982.59;4991003;28;20560;-44
2023/09/25 01:32:53;;;;;;;22.33;4.15;;;;;;;13.52;90.41;99979.41;5008440;28;20049;-45
2023/09/25 01:35:26;;;;;;;18.17;2.90;;;;;;;13.51;90.32;99989.72;5006561;28;20045;-45
2023/09/25 01:37:58;;;;;;;17.98;3.38;;;;;;;13.53;90.34;99976.22;5008429;28;20038;-45
2023/09/25 01:40:27;;;;;;;29.35;3.90;;;;;;;13.55;90.06;99987.78;5008617;28;20064;-44
2023/09/25 01:42:54;;;;;;;21.75;5.10;;;;;;;13.56;89.98;99989.34;4990933;28;20071;-44
2023/09/25 01:45:22;;;;;;;28.90;6.10;;;;;;;13.57;89.84;99984.59;5008580;28;20058;-44
2023/09/25 01:47:53;;;;;;;17.08;3.75;;;;;;;13.56;89.77;99983.78;5008245;28;20049;-44
2023/09/25 01:50:23;;;;;;;25.40;3.83;;;;;;;13.55;90.02;99982.22;5008024;28;20084;-45
2023/09/25 01:53:07;;;;;;;23.60;4.10;;;;;;;13.54;89.63;99977.03;5007255;28;20069;-44
2023/09/25 01:55:39;;;;;;;18.15;3.63;;;;;;;13.55;89.56;99985.00;4991094;28;20085;-44
2023/09/25 01:58:07;;;;;;;18.02;4.55;;;;;;;13.55;89.66;99968.31;5008917;28;20081;-44
2023/09/25 02:00:34;;;;;;;23.75;5.00;;;;;;;13.57;89.58;99977.06;5007931;28;20057;-44
2023/09/25 02:03:01;;;;;;;22.50;4.82;;;;;;;13.56;89.38;99977.44;5002006;28;20077;-46
2023/09/25 02:05:28;;;;;;;18.42;3.70;;;;;;;13.56;89.48;99980.22;5008561;28;20046;-46
2023/09/25 02:07:55;;;;;;;22.48;4.20;;;;;;;13.56;89.52;99977.44;5007112;28;20064;-45
2023/09/25 02:10:22;;;;;;;21.08;5.05;;;;;;;13.56;89.45;99981.00;5007794;28;20050;-45
2023/09/25 02:12:49;;;;;;;20.77;4.68;;;;;;;13.55;89.43;99979.44;5008505;28;20057;-46
2023/09/25 02:15:16;;;;;;;22.40;3.35;;;;;;;13.54;89.43;99974.25;5007626;28;20042;-45
2023/09/25 02:17:43;;;;;;;15.15;3.78;;;;;;;13.54;89.35;99961.13;5008164;28;20053;-44
2023/09/25 02:22:37;;;;;;;18.17;4.45;;;;;;;13.54;89.30;99977.81;5008297;28;20153;-44
2023/09/25 02:25:05;;;;;;;18.55;2.97;;;;;;;13.51;89.35;99970.25;5011984;28;20042;-44
2023/09/25 02:27:32;;;;;;;25.98;5.38;;;;;;;13.51;89.38;99961.91;5010368;28;20526;-44
2023/09/25 02:29:59;;;;;;;21.83;5.63;;;;;;;13.49;89.41;99975.41;5009465;28;20049;-44
2023/09/25 02:32:26;;;;;;;25.48;4.38;;;;;;;13.49;89.49;99974.59;5011773;28;20037;-45
2023/09/25 02:34:53;;;;;;;16.27;3.63;;;;;;;13.46;89.62;99976.16;5012423;28;20500;-46
2023/09/25 02:37:20;;;;;;;18.75;4.40;;;;;;;13.44;89.55;99978.53;5011564;28;20133;-44
2023/09/25 02:39:47;;;;;;;22.42;3.75;;;;;;;13.45;89.74;99991.22;5012413;28;20046;-45
2023/09/25 02:42:14;;;;;;;19.65;3.53;;;;;;;13.43;89.59;99996.38;5008756;28;20458;-44
2023/09/25 02:44:41;;;;;;;25.17;4.15;;;;;;;13.42;89.87;99998.38;5011841;28;20046;-45
2023/09/25 02:47:07;;;;;;;24.95;4.60;;;;;;;13.42;89.92;99992.81;5010491;28;20069;-45
2023/09/25 02:49:34;;;;;;;32.22;7.47;;;;;;;13.42;89.92;100005.94;5011878;28;20064;-44
2023/09/25 02:52:01;;;;;;;20.75;4.00;;;;;;;13.42;89.83;100003.91;5010967;28;20103;-44
2023/09/25 02:54:28;;;;;;;15.98;3.45;;;;;;;13.42;89.76;100009.47;5010010;28;20046;-44
2023/09/25 02:56:55;;;;;;;22.98;3.72;;;;;;;13.43;89.99;100013.06;5010772;28;20046;-45
2023/09/25 02:59:21;;;;;;;17.27;3.65;;;;;;;13.43;89.96;100018.63;5011075;28;20041;-44
2023/09/25 03:01:48;;;;;;;17.40;3.25;;;;;;;13.42;89.87;100017.06;5042509;23;20097;-45
2023/09/25 03:04:15;;;;;;;18.20;5.45;;;;;;;13.41;90.00;100018.22;5012133;28;20506;-46
2023/09/25 03:06:43;;;;;;;20.63;3.95;;;;;;;13.40;89.94;100022.16;5007590;28;20375;-46
2023/09/25 03:09:12;;;;;;;20.77;4.30;;;;;;;13.40;89.95;100022.16;5011566;28;20049;-47
2023/09/25 03:11:38;;;;;;;25.33;4.78;;;;;;;13.40;89.90;100005.50;5009249;28;20407;-46
2023/09/25 03:14:05;;;;;;;17.15;3.80;;;;;;;13.40;90.00;100022.16;5011049;28;20042;-45
2023/09/25 03:16:32;;;;;;;16.63;4.55;;;;;;;13.39;89.83;100007.50;5009936;28;20411;-47
2023/09/25 03:18:59;;;;;;;25.55;4.40;;;;;;;13.40;89.87;100016.59;5011226;28;20045;-46
2023/09/25 03:21:26;;;;;;;27.05;4.93;;;;;;;13.40;89.76;100022.97;5008495;28;20056;-45
2023/09/25 03:23:53;;;;;;;18.73;3.78;;;;;;;13.41;89.91;100018.22;5011082;28;20095;-46
2023/09/25 03:26:21;;;;;;;16.35;3.60;;;;;;;13.41;89.84;100019.03;5010176;28;20042;-45
2023/09/25 03:28:49;;;;;;;24.17;4.05;;;;;;;13.41;89.69;100019.03;5009884;28;20042;-46
2023/09/25 03:31:16;;;;;;;20.48;3.72;;;;;;;13.41;89.64;100015.44;5009984;28;20040;-45
2023/09/25 03:33:45;;;;;;;18.73;3.13;;;;;;;13.39;89.88;100015.84;5009546;28;20042;-46
2023/09/25 03:36:13;;;;;;;27.55;4.38;;;;;;;13.39;89.67;100018.63;5010880;28;20042;-45
2023/09/25 03:38:40;;;;;;;16.70;3.53;;;;;;;13.37;89.80;100023.72;5009255;28;20128;-45
2023/09/25 03:41:07;;;;;;;19.08;4.07;;;;;;;13.37;89.63;100017.38;5010427;28;20046;-46
2023/09/25 03:43:33;;;;;;;14.50;4.05;;;;;;;13.36;89.64;100030.50;5010316;28;20050;-52
2023/09/25 03:46:01;;;;;;;20.88;3.67;;;;;;;13.38;89.68;100030.09;5010045;28;20046;-45
2023/09/25 03:48:28;;;;;;;19.00;2.90;;;;;;;13.38;89.55;100030.09;5024494;28;20057;-45
2023/09/25 03:50:55;;;;;;;17.48;3.60;;;;;;;13.39;89.58;100038.06;5009070;28;20056;-45
2023/09/25 03:53:22;;;;;;;20.90;3.65;;;;;;;13.40;89.34;100044.41;5006981;28;20092;-46
2023/09/25 03:55:48;;;;;;;18.52;3.97;;;;;;;13.41;89.24;100023.78;5009140;28;20400;-45
2023/09/25 03:58:15;;;;;;;20.25;3.70;;;;;;;13.41;89.21;100030.16;5008699;28;20561;-45
2023/09/25 04:00:42;;;;;;;15.00;3.65;;;;;;;13.40;89.26;100027.72;5007762;28;20046;-45
2023/09/25 04:03:09;;;;;;;17.98;3.67;;;;;;;13.40;89.12;100011.06;5009638;28;20053;-49
2023/09/25 04:05:37;;;;;;;17.48;4.97;;;;;;;13.41;88.97;100010.69;5009993;28;20054;-50
2023/09/25 04:08:05;;;;;;;17.13;3.50;;;;;;;13.41;88.84;100027.38;5007941;28;20053;-46
2023/09/25 04:10:32;;;;;;;29.10;7.28;;;;;;;13.39;88.78;100026.97;5007717;28;20050;-46
2023/09/25 04:13:08;;;;;;;16.33;3.50;;;;;;;13.40;88.87;100019.38;5007660;28;20080;-46
2023/09/25 04:15:35;;;;;;;19.15;5.03;;;;;;;13.41;88.72;100034.91;5009332;28;20046;-45
2023/09/25 04:18:05;;;;;;;18.50;4.03;;;;;;;13.41;88.83;100034.91;4993523;28;20050;-45
2023/09/25 04:20:33;;;;;;;14.97;3.53;;;;;;;13.41;88.90;100032.13;5008696;28;20145;-46
2023/09/25 04:23:00;;;;;;;15.82;3.53;;;;;;;13.42;88.74;100036.50;5008409;28;20073;-45
2023/09/25 04:25:27;;;;;;;20.75;4.18;;;;;;;13.42;88.79;100048.41;5023871;28;20713;-45
2023/09/25 04:27:55;;;;;;;19.13;4.00;;;;;;;13.42;88.70;100047.63;5009870;28;20403;-46
2023/09/25 04:30:23;;;;;;;12.18;3.30;;;;;;;13.42;88.63;100056.75;5007651;28;20068;-45
2023/09/25 04:32:54;;;;;;;17.98;3.80;;;;;;;13.42;88.97;100058.75;5008983;28;20054;-45
2023/09/25 04:35:23;;;;;;;28.75;3.97;;;;;;;13.43;88.76;100060.34;5009937;28;20038;-46
2023/09/25 04:37:51;;;;;;;27.52;4.07;;;;;;;13.42;88.84;100064.31;5010086;28;20037;-45
2023/09/25 04:40:25;;;;;;;20.30;4.85;;;;;;;13.40;89.08;100058.31;5009536;28;20091;-47
2023/09/25 04:42:53;;;;;;;24.13;4.25;;;;;;;13.41;89.25;100068.28;5007387;28;20041;-45
2023/09/25 04:45:20;;;;;;;21.60;3.78;;;;;;;13.41;89.22;100069.06;5009169;28;20434;-45
2023/09/25 04:47:53;;;;;;;24.13;6.40;;;;;;;13.41;89.25;100057.94;5008745;28;20129;-45
2023/09/25 04:50:21;;;;;;;17.75;3.33;;;;;;;13.39;89.40;100060.31;5008669;28;20372;-47
2023/09/25 04:52:48;;;;;;;22.02;5.10;;;;;;;13.38;89.56;100057.91;5008464;28;20060;-46
2023/09/25 04:55:15;;;;;;;22.42;4.97;;;;;;;13.39;89.49;100065.88;5008829;28;20557;-45
2023/09/25 04:57:47;;;;;;;23.85;5.53;;;;;;;13.40;89.49;100083.34;5007845;28;20042;-49
2023/09/25 05:00:21;;;;;;;21.55;4.13;;;;;;;13.40;89.30;100088.91;5009203;28;20041;-45
2023/09/25 05:02:49;;;;;;;24.58;5.85;;;;;;;13.41;89.75;100085.75;5010441;28;20057;-46
2023/09/25 05:05:17;;;;;;;25.25;4.32;;;;;;;13.42;89.58;100092.91;5008631;28;20056;-45
2023/09/25 05:07:48;;;;;;;20.65;4.95;;;;;;;13.39;89.62;100090.91;5008726;28;20034;-45
2023/09/25 05:10:18;;;;;;;21.98;4.95;;;;;;;13.38;89.96;100096.81;5008200;28;20037;-45
2023/09/25 05:12:45;;;;;;;14.02;3.92;;;;;;;13.37;89.92;100106.34;5007885;28;20037;-45
2023/09/25 05:15:13;;;;;;;30.38;5.50;;;;;;;13.38;90.11;100107.94;5007855;28;20042;-45
2023/09/25 05:17:41;;;;;;;19.02;4.00;;;;;;;13.38;89.97;100107.94;5008640;28;20053;-46
2023/09/25 05:20:11;;;;;;;30.05;3.97;;;;;;;13.39;90.21;100129.03;5009360;28;20683;-45
2023/09/25 05:22:39;;;;;;;16.90;3.83;;;;;;;13.39;90.23;100124.28;5007905;28;20057;-48
2023/09/25 05:25:08;;;;;;;24.38;4.38;;;;;;;13.41;90.15;100123.88;5008160;28;20045;-45
2023/09/25 05:27:36;;;;;;;19.75;3.53;;;;;;;13.41;90.25;100124.69;5008300;28;20092;-45
2023/09/25 05:30:05;;;;;;;19.70;3.78;;;;;;;13.41;90.24;100123.88;5008265;28;20053;-45
2023/09/25 05:32:33;;;;;;;24.67;5.05;;;;;;;13.40;90.24;100133.38;5008306;28;20073;-46
2023/09/25 05:35:00;;;;;;;19.20;4.80;;;;;;;13.40;90.24;100144.50;5009224;28;20065;-46
2023/09/25 05:37:27;;;;;;;24.65;3.63;;;;;;;13.40;90.37;100133.38;5007477;28;20049;-45
2023/09/25 05:39:54;;;;;;;24.80;4.93;;;;;;;13.38;90.36;100149.66;5008631;28;20044;-46
2023/09/25 05:42:21;;;;;;;20.15;5.88;;;;;;;13.39;90.59;100151.28;5007350;28;20137;-46
2023/09/25 05:44:48;;;;;;;29.92;5.95;;;;;;;13.40;90.74;100152.84;5009273;28;20078;-45
2023/09/25 05:47:15;;;;;;;21.10;6.03;;;;;;;13.41;90.81;100158.06;5008097;28;20062;-46
2023/09/25 05:49:41;;;;;;;15.75;3.70;;;;;;;13.43;90.64;100163.22;5006237;28;20492;-45
2023/09/25 05:52:08;;;;;;;17.27;4.13;;;;;;;13.43;90.40;100166.00;5006404;28;20107;-45
2023/09/25 05:54:35;;;;;;;25.65;4.90;;;;;;;13.41;90.93;100169.19;5012483;28;20137;-45
2023/09/25 05:57:05;;;;;;;24.50;4.60;;;;;;;13.39;90.78;100165.16;5008773;28;20041;-48
2023/09/25 05:59:36;;;;;;;29.45;5.53;;;;;;;13.35;90.85;100170.69;5012538;28;20053;-48
2023/09/25 06:02:03;;;;;;;25.75;4.13;;;;;;;13.34;90.78;100168.28;5009906;28;20463;-47
2023/09/25 06:04:33;;;;;;;16.08;5.18;;;;;;;13.33;90.95;100167.47;5012335;28;20049;-46
2023/09/25 06:07:00;;;;;;;24.55;3.50;;;;;;;13.32;90.93;100177.00;5009912;28;20052;-46
2023/09/25 06:09:27;;;;;;;18.45;3.83;;;;;;;13.31;90.82;100180.16;5013039;28;20052;-45
2023/09/25 06:11:54;;;;;;;19.55;4.15;;;;;;;13.29;90.79;100165.84;5010991;28;20042;-45
2023/09/25 06:14:22;;;;;;;13.77;3.97;;;;;;;13.28;90.94;100172.56;5011510;28;20404;-45
2023/09/25 06:16:51;;;;;;;22.50;3.50;;;;;;;13.27;91.18;100179.28;5011969;28;20042;-46
2023/09/25 06:19:18;;;;;;;18.65;4.15;;;;;;;13.25;91.11;100176.91;5011274;28;20061;-46
2023/09/25 06:21:45;;;;;;;24.55;4.80;;;;;;;13.26;91.63;100183.28;5010983;28;20133;-45
2023/09/25 06:24:12;;;;;;;19.55;3.75;;;;;;;13.27;91.36;100198.75;5011882;28;20038;-45
2023/09/25 06:26:40;;;;;;;26.55;6.00;;;;;;;13.29;91.26;100204.75;5011577;28;20129;-46
2023/09/25 06:29:09;;;;;;;24.00;3.97;;;;;;;13.30;91.32;100212.72;5009537;28;20044;-46
2023/09/25 06:31:37;;;;;;;20.42;3.88;;;;;;;13.32;91.44;100218.69;5007953;28;20063;-46
2023/09/25 06:34:26;;;;;;;18.15;4.85;;;;;;;13.33;91.27;100219.50;5010886;28;20563;-46
2023/09/25 06:36:54;;;;;;;22.75;3.90;;;;;;;13.33;91.41;100225.88;5011147;28;20072;-46
2023/09/25 06:39:21;;;;;;;24.27;3.90;;;;;;;13.32;91.64;100231.78;5011400;28;20052;-46
2023/09/25 06:41:49;;;;;;;13.43;4.25;;;;;;;13.33;91.80;100234.22;5008598;28;20042;-46
2023/09/25 06:44:15;;;;;;;23.13;4.90;;;;;;;13.36;91.51;100241.81;5012315;28;20419;-45
2023/09/25 06:46:43;;;;;;;18.83;4.07;;;;;;;13.38;91.60;100241.41;4986675;28;20101;-46
2023/09/25 06:49:10;;;;;;;18.63;4.30;;;;;;;13.37;91.66;100251.72;5011627;28;20042;-46
2023/09/25 06:51:37;;;;;;;31.55;6.50;;;;;;;13.38;91.76;100258.91;5011356;28;20049;-46
2023/09/25 06:54:04;;;;;;;21.83;4.47;;;;;;;13.42;91.64;100254.19;5009079;28;20049;-47
2023/09/25 06:56:31;;;;;;;23.15;4.82;;;;;;;13.43;91.76;100258.56;5009216;28;20415;-45
2023/09/25 06:58:58;;;;;;;20.90;3.42;;;;;;;13.46;91.83;100262.59;5010955;28;20041;-49
2023/09/25 07:01:25;;;;;;;18.88;4.18;;;;;;;13.48;91.77;100268.56;5011725;28;20500;-46
2023/09/25 07:03:52;;;;;;;20.67;4.10;;;;;;;13.50;91.84;100274.56;5008973;28;20566;-47
2023/09/25 07:06:19;;;;;;;20.85;4.60;;;;;;;13.53;91.88;100273.78;5009768;28;20064;-46
2023/09/25 07:08:47;;;;;;;19.35;3.78;;;;;;;13.54;91.79;100280.97;5010910;28;20048;-52
2023/09/25 07:11:20;;;;;;;27.58;4.55;;;;;;;13.56;91.79;100289.72;5010068;28;20037;-45
2023/09/25 07:13:48;;;;;;;20.23;4.20;;;;;;;13.59;91.78;100286.19;5009590;28;20053;-44
2023/09/25 07:16:15;;;;;;;17.58;4.15;;;;;;;13.61;91.89;100296.97;5007088;28;20057;-44
2023/09/25 07:18:46;;;;;;;22.52;3.42;;;;;;;13.65;91.81;100304.19;5010889;28;20062;-45
2023/09/25 07:21:15;;;;;;;18.15;3.60;;;;;;;13.67;91.92;100304.59;5007317;28;20136;-45
2023/09/25 07:23:42;;;;;;;26.77;5.25;;;;;;;13.72;91.67;100304.25;5005100;28;20042;-47
2023/09/25 07:26:09;;;;;;;23.13;3.58;;;;;;;13.74;91.65;100296.34;5009131;28;20041;-46
2023/09/25 07:28:37;;;;;;;20.40;4.97;;;;;;;13.77;91.32;100308.69;5009454;28;20056;-45
2023/09/25 07:31:05;;;;;;;20.15;3.85;;;;;;;13.78;91.26;100311.13;5009316;28;20128;-46
2023/09/25 07:33:34;;;;;;;14.30;2.85;;;;;;;13.80;91.23;100310.72;5008919;28;20049;-49
2023/09/25 07:36:03;;;;;;;18.10;4.60;;;;;;;13.83;91.16;100313.56;5008610;28;20045;-47
2023/09/25 07:38:32;;;;;;;26.40;4.40;;;;;;;13.86;91.26;100310.03;5011279;28;20081;-44
2023/09/25 07:40:59;;;;;;;16.77;4.13;;;;;;;13.89;91.08;100319.59;5010174;28;20042;-48
2023/09/25 07:43:29;;;;;;;22.33;3.80;;;;;;;13.90;91.18;100316.44;5010959;28;20454;-44
2023/09/25 07:46:01;;;;;;;23.50;3.78;;;;;;;13.94;91.09;100324.84;5007896;28;20459;-45
2023/09/25 07:48:31;;;;;;;15.45;3.70;;;;;;;13.97;90.99;100326.88;5010169;28;20042;-44
2023/09/25 07:50:58;;;;;;;12.68;2.95;;;;;;;14.00;90.69;100331.69;5011258;28;20042;-44
2023/09/25 07:53:28;;;;;;;19.10;4.43;;;;;;;14.04;90.65;100336.09;5012493;28;20088;-44
2023/09/25 07:55:55;;;;;;;22.85;4.35;;;;;;;14.08;90.45;100335.34;5010511;28;20546;-43
2023/09/25 07:58:27;;;;;;;21.38;4.40;;;;;;;14.12;90.33;100347.31;5009745;28;20413;-44
2023/09/25 08:01:00;;;;;;;21.83;4.18;;;;;;;14.15;90.31;100349.34;5010582;28;20046;-44
2023/09/25 08:03:28;;;;;;;17.13;3.50;;;;;;;14.20;90.05;100357.38;5007311;28;20504;-44
2023/09/25 08:05:57;;;;;;;22.20;3.08;;;;;;;14.23;89.88;100360.19;5010993;28;20060;-44
2023/09/25 08:08:24;;;;;;;16.75;3.45;;;;;;;14.26;89.89;100375.34;5009870;28;20096;-44
2023/09/25 08:10:51;;;;;;;16.85;3.00;;;;;;;14.30;89.52;100390.09;5010373;28;20046;-44
2023/09/25 08:13:18;;;;;;;15.63;2.78;;;;;;;14.34;89.37;100380.66;5010379;28;20049;-43
2023/09/25 08:15:47;;;;;;;14.82;3.42;;;;;;;14.38;89.14;100367.56;5010418;28;20137;-45
2023/09/25 08:18:14;;;;;;;19.80;4.45;;;;;;;14.41;89.13;100386.31;5007782;28;20136;-46
2023/09/25 08:20:42;;;;;;;13.18;3.17;;;;;;;14.47;88.80;100389.56;5010578;28;20056;-44
2023/09/25 08:23:09;;;;;;;17.48;2.90;;;;;;;14.52;88.76;100395.59;5010318;28;20089;-44
2023/09/25 08:25:37;;;;;;;26.15;3.58;;;;;;;14.56;88.11;100402.00;5010923;28;20492;-45
2023/09/25 08:28:08;;;;;;;16.10;3.08;;;;;;;14.61;88.25;100395.31;5007873;28;20049;-44
2023/09/25 08:30:35;;;;;;;19.20;3.10;;;;;;;14.66;88.31;100400.53;5008949;28;20045;-46
2023/09/25 08:33:01;;;;;;;20.75;3.90;;;;;;;14.72;88.02;100406.56;5008526;28;20062;-45
2023/09/25 08:35:28;;;;;;;19.05;4.70;;;;;;;14.76;87.76;100411.00;5009734;28;20177;-44
2023/09/25 08:37:55;;;;;;;25.17;4.15;;;;;;;14.83;87.75;100421.41;5005205;28;20046;-49
2023/09/25 08:40:22;;;;;;;10.13;2.50;;;;;;;14.90;87.64;100422.31;5008249;28;20391;-44
2023/09/25 08:42:51;;;;;;;9.23;3.33;;;;;;;14.98;87.86;100429.56;5011017;28;20049;-49
2023/09/25 08:45:32;;;;;;;23.92;4.55;;;;;;;15.06;87.70;100431.22;5010094;28;20116;-47
2023/09/25 08:47:59;;;;;;;20.88;4.65;;;;;;;15.20;88.08;100448.09;5009719;28;20065;-45
2023/09/25 08:50:26;;;;;;;15.30;3.92;;;;;;;15.31;88.08;100447.38;5006928;28;20046;-47
2023/09/25 08:52:55;;;;;;;18.23;3.72;;;;;;;15.47;88.50;100439.59;5008970;28;20038;-45
2023/09/25 08:55:24;;;;;;;20.25;4.03;;;;;;;15.65;88.76;100438.56;5007923;28;20057;-46
2023/09/25 08:57:51;;;;;;;21.50;3.88;;;;;;;15.87;89.14;100449.88;5010182;28;20054;-48
2023/09/25 09:00:19;;;;;;;23.58;4.30;;;;;;;16.17;89.76;100462.47;5009472;28;20046;-46
2023/09/25 09:02:46;;;;;;;22.60;4.93;;;;;;;16.49;89.29;100464.63;5009487;28;20519;-47
2023/09/25 09:05:13;;;;;;;18.23;3.60;;;;;;;16.66;87.08;100461.13;5006288;28;20050;-45
2023/09/25 09:08:05;;;;;;;19.40;3.67;;;;;;;16.74;86.19;100457.19;5008908;28;20042;-45
2023/09/25 09:10:37;;;;;;;18.70;4.38;;;;;;;16.88;85.54;100471.22;5013277;28;20050;-43
2023/09/25 09:13:09;;;;;;;17.52;5.43;;;;;;;17.43;83.80;100478.13;5009608;28;20042;-47
2023/09/25 09:15:39;;;;;;;18.02;3.35;;;;;;;18.05;82.16;100469.38;5007237;28;20145;-46
2023/09/25 09:18:23;;;;;;;21.25;4.90;;;;;;;18.64;79.48;100468.44;5009056;28;20044;-43
2023/09/25 09:20:54;;;;;;;24.40;5.05;;;;;;;19.52;76.48;100478.41;5006371;28;20042;-48
2023/09/25 09:23:38;;;;;;;23.52;3.92;;;;;;;20.20;74.42;100473.00;5008500;28;20483;-43
2023/09/25 09:26:07;;;;;;;22.58;4.22;;;;;;;20.64;70.86;100487.00;5009125;28;20583;-45
2023/09/25 09:28:34;;;;;;;19.52;4.60;;;;;;;20.86;68.35;100482.72;5008765;28;20108;-43
2023/09/25 09:31:05;;;;;;;15.95;4.10;;;;;;;21.15;66.72;100489.59;5009313;28;20048;-47
2023/09/25 09:33:32;;;;;;;17.13;3.85;;;;;;;21.49;65.26;100485.91;5007572;28;20046;-43
2023/09/25 09:35:58;;;;;;;16.45;3.60;;;;;;;21.49;63.85;100497.16;5007624;28;20068;-45
2023/09/25 09:38:26;;;;;;;13.18;4.22;;;;;;;21.48;63.10;100487.09;5009420;28;20046;-44
2023/09/25 09:40:53;;;;;;;17.55;4.53;;;;;;;21.50;62.91;100493.13;5008166;28;20046;-47
2023/09/25 09:43:22;;;;;;;20.30;4.47;;;;;;;21.76;62.17;100495.13;5008235;28;20046;-44
2023/09/25 09:45:50;;;;;;;19.73;4.03;;;;;;;21.98;60.98;100502.03;5008959;28;20396;-47
2023/09/25 09:48:19;;;;;;;19.10;4.57;;;;;;;22.06;60.39;100499.88;5009039;28;20049;-44
2023/09/25 09:50:50;;;;;;;16.38;4.45;;;;;;;22.13;59.67;100502.59;5007685;28;20088;-44
2023/09/25 09:53:17;;;;;;;13.25;3.33;;;;;;;22.35;57.93;100507.41;5009036;28;20137;-45
2023/09/25 09:55:45;;;;;;;14.02;3.65;;;;;;;22.38;56.50;100515.00;5008402;28;20045;-44
2023/09/25 09:58:13;;;;;;;17.05;3.58;;;;;;;22.75;55.51;100513.13;5008742;28;20037;-47
2023/09/25 10:00:41;;;;;;;13.32;4.75;;;;;;;22.83;54.61;100511.75;5008282;28;20499;-43
2023/09/25 10:03:08;;;;;;;21.00;3.60;;;;;;;22.69;54.02;100518.47;5009092;28;20061;-45
2023/09/25 10:05:45;;;;;;;11.57;3.55;;;;;;;22.53;54.66;100518.34;5009061;28;20046;-46
2023/09/25 10:08:12;;;;;;;11.95;3.28;;;;;;;22.63;53.39;100510.94;5009282;28;20477;-44
2023/09/25 10:10:43;;;;;;;15.70;3.97;;;;;;;22.79;53.40;100522.34;5006966;28;20388;-44
2023/09/25 10:13:21;;;;;;;16.83;3.65;;;;;;;23.15;53.29;100520.34;5008901;28;20050;-44
2023/09/25 10:16:00;;;;;;;14.32;3.42;;;;;;;23.28;53.10;100526.91;5009056;28;20077;-45
2023/09/25 10:18:29;;;;;;;17.55;4.10;;;;;;;23.32;52.17;100524.81;5007533;28;20058;-47
2023/09/25 10:21:09;;;;;;;13.57;3.50;;;;;;;23.25;52.58;100533.44;5007947;28;20056;-44
2023/09/25 10:23:39;;;;;;;11.57;4.05;;;;;;;23.43;52.15;100538.75;5009131;28;20042;-45
2023/09/25 10:26:21;;;;;;;15.23;3.33;;;;;;;23.36;51.66;100548.13;5009052;28;20532;-44
2023/09/25 10:29:12;;;;;;;16.05;3.15;;;;;;;22.60;51.71;100549.28;5008905;28;20092;-44
2023/09/25 10:31:45;;;;;;;15.80;3.75;;;;;;;22.01;53.20;100557.56;5006294;28;20046;-44
2023/09/25 10:34:12;;;;;;;16.20;3.28;;;;;;;22.04;52.80;100559.53;5008757;28;20058;-44
2023/09/25 10:36:46;;;;;;;21.10;4.85;;;;;;;22.10;52.76;100566.28;5007766;28;20435;-43
2023/09/25 10:39:17;;;;;;;18.58;4.95;;;;;;;22.23;52.25;100569.28;5010939;28;20048;-49
2023/09/25 10:41:56;;;;;;;13.35;4.30;;;;;;;22.33;51.98;100569.09;5008031;28;20070;-45
2023/09/25 10:44:25;;;;;;;13.75;3.75;;;;;;;22.42;51.98;100568.56;5012052;28;20053;-43
2023/09/25 10:46:52;;;;;;;14.75;4.20;;;;;;;22.54;51.92;100575.59;5011964;28;20155;-46
2023/09/25 10:49:19;;;;;;;15.57;2.97;;;;;;;22.37;52.11;100569.81;5012370;28;20092;-45
2023/09/25 10:51:47;;;;;;;9.40;3.33;;;;;;;22.16;51.90;100578.66;5008229;28;20041;-45
2023/09/25 10:54:14;;;;;;;17.92;4.07;;;;;;;21.81;51.85;100565.09;5011591;28;20038;-49
2023/09/25 10:56:44;;;;;;;21.10;4.07;;;;;;;21.46;52.76;100565.63;5011468;28;20050;-46
2023/09/25 10:59:11;;;;;;;14.30;2.95;;;;;;;21.19;53.14;100571.19;5012328;28;20042;-46
2023/09/25 11:01:38;;;;;;;9.98;2.50;;;;;;;20.81;53.63;100555.56;5010109;28;20054;-45
2023/09/25 11:04:05;;;;;;;17.13;3.17;;;;;;;20.33;54.61;100578.16;5008382;28;20046;-45
2023/09/25 11:06:33;;;;;;;13.90;2.90;;;;;;;19.86;55.64;100568.44;5009109;28;20380;-46
2023/09/25 11:09:07;;;;;;;12.60;3.83;;;;;;;19.39;56.45;100558.72;5011506;28;20133;-46
2023/09/25 11:11:34;;;;;;;13.00;3.28;;;;;;;19.14;57.03;100556.00;5011884;28;20045;-49
2023/09/25 11:14:02;;;;;;;20.08;3.47;;;;;;;19.02;58.02;100561.25;5011478;28;20154;-47
2023/09/25 11:16:29;;;;;;;22.88;5.75;;;;;;;18.87;58.02;100571.75;5011478;28;20500;-47
2023/09/25 11:19:10;;;;;;;15.07;3.50;;;;;;;18.79;58.92;100575.78;5011712;28;20045;-46
2023/09/25 11:21:39;;;;;;;20.10;4.00;;;;;;;18.73;59.26;100577.38;5008831;28;20046;-46
2023/09/25 11:24:10;;;;;;;18.27;3.63;;;;;;;18.66;59.25;100588.63;5009015;28;20567;-53
2023/09/25 11:26:39;;;;;;;17.75;2.78;;;;;;;18.58;58.94;100587.84;5009554;28;20056;-46
2023/09/25 11:29:07;;;;;;;19.30;4.07;;;;;;;18.56;59.29;100586.66;5011177;28;20507;-45